createdAt,value
2022-12-08T00:00:35.985Z,10.66
2022-12-08T00:03:02.464Z,11.08
2022-12-08T00:05:28.889Z,10.43
2022-12-08T00:07:55.250Z,10.28
2022-12-08T00:10:47.717Z,10.00
2022-12-08T00:13:07.890Z,10.00
2022-12-08T00:15:34.207Z,9.73
2022-12-08T00:18:00.494Z,10.26
2022-12-08T00:20:26.808Z,10.29
2022-12-08T00:22:53.133Z,9.96
2022-12-08T00:25:19.428Z,9.52
2022-12-08T00:27:45.730Z,9.44
2022-12-08T00:30:12.071Z,9.30
2022-12-08T00:32:38.354Z,8.74
2022-12-08T00:35:05.081Z,9.00
2022-12-08T00:37:31.524Z,9.01
2022-12-08T00:39:57.821Z,9.02
2022-12-08T00:42:24.107Z,9.44
2022-12-08T00:44:50.426Z,10.23
2022-12-08T00:47:20.992Z,11.30
2022-12-08T00:49:49.799Z,11.23
2022-12-08T00:52:16.121Z,11.48
2022-12-08T00:54:42.416Z,11.70
2022-12-08T00:57:08.734Z,11.73
2022-12-08T00:59:35.063Z,11.01
2022-12-08T01:02:01.398Z,11.17
2022-12-08T01:04:27.695Z,11.32
2022-12-08T01:06:54.024Z,10.88
2022-12-08T01:09:20.324Z,10.67
2022-12-08T01:11:46.616Z,11.21
2022-12-08T01:14:12.935Z,10.74
2022-12-08T01:16:39.291Z,10.09
2022-12-08T01:19:05.632Z,10.06
2022-12-08T01:21:31.949Z,9.92
2022-12-08T01:23:58.241Z,10.02
2022-12-08T01:26:24.538Z,9.79
2022-12-08T01:28:50.860Z,9.45
2022-12-08T01:31:17.260Z,8.87
2022-12-08T01:33:43.625Z,9.56
2022-12-08T01:36:09.956Z,9.16
2022-12-08T01:38:36.232Z,9.08
2022-12-08T01:41:02.506Z,8.76
2022-12-08T01:43:28.809Z,8.61
2022-12-08T01:45:55.191Z,8.41
2022-12-08T01:48:21.565Z,7.91
2022-12-08T01:50:47.902Z,7.46
2022-12-08T01:53:14.192Z,7.85
2022-12-08T01:55:40.483Z,7.90
2022-12-08T01:58:06.794Z,7.23
2022-12-08T02:00:33.096Z,7.71
2022-12-08T02:02:59.453Z,8.18
2022-12-08T02:05:25.873Z,8.13
2022-12-08T02:07:52.182Z,8.51
2022-12-08T02:10:18.546Z,8.64
2022-12-08T02:12:44.853Z,8.86
2022-12-08T02:15:11.145Z,9.19
2022-12-08T02:17:37.446Z,10.29
2022-12-08T02:20:04.140Z,11.02
2022-12-08T02:22:30.618Z,10.85
2022-12-08T02:24:56.919Z,11.58
2022-12-08T02:27:23.255Z,11.96
2022-12-08T02:29:49.553Z,12.70
2022-12-08T02:32:15.853Z,13.33
2022-12-08T02:34:42.197Z,13.35
2022-12-08T02:37:08.493Z,13.52
2022-12-08T02:39:34.780Z,14.00
2022-12-08T02:42:01.167Z,14.13
2022-12-08T02:44:27.473Z,13.63
2022-12-08T02:46:53.763Z,13.89
2022-12-08T02:49:20.095Z,14.37
2022-12-08T02:51:46.395Z,14.10
2022-12-08T02:54:12.691Z,14.16
2022-12-08T02:56:39.030Z,14.07
2022-12-08T02:59:05.339Z,14.13
2022-12-08T03:01:31.770Z,13.84
2022-12-08T03:03:58.114Z,13.54
2022-12-08T03:06:24.422Z,13.42
2022-12-08T03:08:50.720Z,13.00
2022-12-08T03:11:17.047Z,12.52
2022-12-08T03:13:43.332Z,12.49
2022-12-08T03:16:09.788Z,12.16
2022-12-08T03:18:36.198Z,11.80
2022-12-08T03:21:02.490Z,11.66
2022-12-08T03:23:28.790Z,10.85
2022-12-08T03:25:55.142Z,11.41
2022-12-08T03:28:21.444Z,10.85
2022-12-08T03:30:47.841Z,10.88
2022-12-08T03:33:14.201Z,10.80
2022-12-08T03:35:40.509Z,11.19
2022-12-08T03:38:06.799Z,11.46
2022-12-08T03:40:33.120Z,11.70
2022-12-08T03:42:59.414Z,11.98
2022-12-08T03:45:25.705Z,11.65
2022-12-08T03:47:52.080Z,11.76
2022-12-08T03:50:18.382Z,12.07
2022-12-08T03:52:44.703Z,12.52
2022-12-08T03:55:11.020Z,12.16
2022-12-08T03:57:37.314Z,12.22
2022-12-08T04:00:03.940Z,12.35
2022-12-08T04:02:30.611Z,12.30
2022-12-08T04:04:56.965Z,11.89
2022-12-08T04:07:23.259Z,12.00
2022-12-08T04:09:49.584Z,12.17
2022-12-08T04:12:15.881Z,11.97
2022-12-08T04:14:42.176Z,12.11
2022-12-08T04:17:08.509Z,12.97
2022-12-08T04:19:34.808Z,13.46
2022-12-08T04:22:01.102Z,13.55
2022-12-08T04:24:27.444Z,13.61
2022-12-08T04:26:53.757Z,14.30
2022-12-08T04:29:20.063Z,13.96
2022-12-08T04:31:46.430Z,14.61
2022-12-08T04:34:12.785Z,14.50
2022-12-08T04:36:39.117Z,14.23
2022-12-08T04:39:05.432Z,14.10
2022-12-08T04:41:31.732Z,15.17
2022-12-08T04:43:58.026Z,15.55
2022-12-08T04:46:24.427Z,16.51
2022-12-08T04:48:50.785Z,16.13
2022-12-08T04:51:17.114Z,15.91
2022-12-08T04:53:46.460Z,16.29
2022-12-08T04:56:13.328Z,17.22
2022-12-08T04:58:39.633Z,17.68
2022-12-08T05:01:05.980Z,17.71
2022-12-08T05:03:32.329Z,17.35
2022-12-08T05:05:59.406Z,17.62
2022-12-08T05:08:26.846Z,17.44
2022-12-08T05:10:53.485Z,17.35
2022-12-08T05:13:19.818Z,18.01
2022-12-08T05:15:46.150Z,18.54
2022-12-08T05:18:12.441Z,17.86
2022-12-08T05:20:38.749Z,17.68
2022-12-08T05:23:05.069Z,18.18
2022-12-08T05:25:31.372Z,18.54
2022-12-08T05:28:17.746Z,18.66
2022-12-08T05:30:43.937Z,17.81
2022-12-08T05:33:10.213Z,17.59
2022-12-08T05:35:36.502Z,17.35
2022-12-08T05:38:02.821Z,16.83
2022-12-08T05:40:29.093Z,16.12
2022-12-08T05:42:55.379Z,16.70
2022-12-08T05:45:21.702Z,16.80
2022-12-08T05:47:48.031Z,17.37
2022-12-08T05:50:14.331Z,17.12
2022-12-08T05:52:40.655Z,17.02
2022-12-08T05:55:06.957Z,17.49
2022-12-08T05:57:33.256Z,16.14
2022-12-08T06:02:26.127Z,16.85
2022-12-08T06:04:52.477Z,16.66
2022-12-08T06:07:18.801Z,17.28
2022-12-08T06:09:45.100Z,16.57
2022-12-08T06:12:11.401Z,16.86
2022-12-08T06:14:37.810Z,16.83
2022-12-08T06:17:04.184Z,17.43
2022-12-08T06:19:30.527Z,17.36
2022-12-08T06:21:56.849Z,16.28
2022-12-08T06:24:23.156Z,16.96
2022-12-08T06:26:49.452Z,17.08
2022-12-08T06:29:15.783Z,17.82
2022-12-08T06:31:42.108Z,18.41
2022-12-08T06:34:08.422Z,18.56
2022-12-08T06:36:34.745Z,19.44
2022-12-08T06:39:01.028Z,19.09
2022-12-08T06:41:27.304Z,18.96
2022-12-08T06:43:53.615Z,18.98
2022-12-08T06:46:21.489Z,18.96
2022-12-08T06:48:47.824Z,19.96
2022-12-08T06:51:14.142Z,20.01
2022-12-08T06:53:40.427Z,18.79
2022-12-08T06:56:06.791Z,19.86
2022-12-08T06:58:33.103Z,19.27
2022-12-08T07:00:59.469Z,19.96
2022-12-08T07:03:25.808Z,19.31
2022-12-08T07:05:52.166Z,19.50
2022-12-08T07:08:18.531Z,20.08
2022-12-08T07:10:44.868Z,20.25
2022-12-08T07:13:11.202Z,19.66
2022-12-08T07:15:37.503Z,19.17
2022-12-08T07:18:03.798Z,19.50
2022-12-08T07:20:30.121Z,20.13
2022-12-08T07:22:56.428Z,20.52
2022-12-08T07:25:22.723Z,20.03
2022-12-08T07:27:49.044Z,19.97
2022-12-08T07:30:15.336Z,20.72
2022-12-08T07:32:41.636Z,20.90
2022-12-08T07:35:07.963Z,20.10
2022-12-08T07:37:34.258Z,19.23
2022-12-08T07:40:00.585Z,19.05
2022-12-08T07:42:26.913Z,18.99
2022-12-08T07:44:53.235Z,20.59
2022-12-08T07:47:19.531Z,19.80
2022-12-08T07:49:45.876Z,18.97
2022-12-08T07:52:12.171Z,19.56
2022-12-08T07:54:38.461Z,19.79
2022-12-08T07:57:04.780Z,19.31
2022-12-08T07:59:31.079Z,18.99
2022-12-08T08:02:22.388Z,19.37
2022-12-08T08:04:43.709Z,19.68
2022-12-08T08:07:10.027Z,19.26
2022-12-08T08:09:36.328Z,19.40
2022-12-08T08:12:29.495Z,19.43
2022-12-08T08:14:48.960Z,19.68
2022-12-08T08:17:15.389Z,19.31
2022-12-08T08:19:41.756Z,19.06
2022-12-08T08:22:08.049Z,19.28
2022-12-08T08:24:34.360Z,19.58
2022-12-08T08:27:00.659Z,20.24
2022-12-08T08:29:26.951Z,19.73
2022-12-08T08:31:53.276Z,20.25
2022-12-08T08:34:19.566Z,19.57
2022-12-08T08:36:45.875Z,17.26
2022-12-08T08:39:12.222Z,18.57
2022-12-08T08:41:38.538Z,19.11
2022-12-08T08:44:04.903Z,19.28
2022-12-08T08:46:31.314Z,19.00
2022-12-08T08:48:57.664Z,19.87
2022-12-08T08:51:23.969Z,20.62
2022-12-08T08:53:50.291Z,20.01
2022-12-08T08:56:16.580Z,20.41
2022-12-08T08:58:42.879Z,19.72
2022-12-08T09:03:00.488Z,16.49
2022-12-08T09:08:03.003Z,21.15
2022-12-08T09:10:29.488Z,21.91
2022-12-08T09:12:55.868Z,22.16
2022-12-08T09:15:22.488Z,23.13
2022-12-08T09:17:48.849Z,23.11
2022-12-08T09:20:15.203Z,24.21
2022-12-08T09:22:41.569Z,23.98
2022-12-08T09:25:08.616Z,24.64
2022-12-08T09:27:35.021Z,24.11
2022-12-08T09:30:01.710Z,24.81
2022-12-08T09:32:28.164Z,24.16
2022-12-08T09:34:54.532Z,25.21
2022-12-08T09:37:20.875Z,25.48
2022-12-08T09:39:47.241Z,25.21
2022-12-08T09:42:13.587Z,26.22
2022-12-08T09:44:39.958Z,24.66
2022-12-08T09:47:06.347Z,25.33
2022-12-08T09:49:32.870Z,26.10
2022-12-08T09:51:59.246Z,26.23
2022-12-08T09:54:25.631Z,25.58
2022-12-08T09:56:51.995Z,25.56
2022-12-08T09:59:18.379Z,26.19
2022-12-08T10:01:44.783Z,25.63
2022-12-08T10:04:11.181Z,25.14
2022-12-08T10:06:37.615Z,24.94
2022-12-08T10:09:03.951Z,25.02
2022-12-08T10:11:30.357Z,24.52
2022-12-08T10:13:56.741Z,24.32
2022-12-08T10:16:29.328Z,23.79
2022-12-08T10:18:56.299Z,24.73
2022-12-08T10:21:22.722Z,23.99
2022-12-08T10:23:49.063Z,24.72
2022-12-08T10:26:15.428Z,24.23
2022-12-08T10:28:45.193Z,24.07
2022-12-08T10:31:12.135Z,24.23
2022-12-08T10:33:38.597Z,24.40
2022-12-08T10:36:05.127Z,23.62
2022-12-08T10:38:31.485Z,24.10
2022-12-08T10:40:57.958Z,23.57
2022-12-08T10:43:24.339Z,23.13
2022-12-08T10:45:50.769Z,21.94
2022-12-08T10:48:17.171Z,22.47
2022-12-08T10:50:43.490Z,22.61
2022-12-08T10:53:09.825Z,23.40
2022-12-08T10:55:36.360Z,23.70
2022-12-08T10:58:02.715Z,23.29
2022-12-08T11:00:29.146Z,23.65
2022-12-08T11:02:55.840Z,23.80
2022-12-08T11:05:22.323Z,24.43
2022-12-08T11:07:48.717Z,24.07
2022-12-08T11:10:15.182Z,24.06
2022-12-08T11:12:41.503Z,23.14
2022-12-08T11:15:07.855Z,23.24
2022-12-08T11:17:34.224Z,24.04
2022-12-08T11:20:00.542Z,22.74
2022-12-08T11:22:26.970Z,24.06
2022-12-08T11:24:53.366Z,23.67
2022-12-08T11:27:19.680Z,23.67
2022-12-08T11:29:46.001Z,24.41
2022-12-08T11:32:12.404Z,24.59
2022-12-08T11:34:38.880Z,24.51
2022-12-08T11:37:08.018Z,24.07
2022-12-08T11:39:34.412Z,23.41
2022-12-08T11:42:00.796Z,23.66
2022-12-08T11:44:27.191Z,23.69
2022-12-08T11:46:53.571Z,23.58
2022-12-08T11:49:19.928Z,22.75
2022-12-08T11:51:46.279Z,22.40
2022-12-08T11:54:12.627Z,22.40
2022-12-08T11:56:38.993Z,22.32
2022-12-08T11:59:05.323Z,23.01
2022-12-08T12:01:31.685Z,22.80
2022-12-08T12:03:58.006Z,23.48
2022-12-08T12:06:46.372Z,22.98
2022-12-08T12:09:10.757Z,23.66
2022-12-08T12:11:37.100Z,23.25
2022-12-08T12:14:03.436Z,23.37
2022-12-08T12:16:29.906Z,23.38
2022-12-08T12:18:56.286Z,23.70
2022-12-08T12:21:24.034Z,23.95
2022-12-08T12:23:50.512Z,24.06
2022-12-08T12:26:17.058Z,23.83
2022-12-08T12:28:43.421Z,23.13
2022-12-08T12:31:09.943Z,23.29
2022-12-08T12:33:36.379Z,22.51
2022-12-08T12:36:05.770Z,22.48
2022-12-08T12:38:32.186Z,22.79
2022-12-08T12:40:58.540Z,22.98
2022-12-08T12:43:24.883Z,23.78
2022-12-08T12:45:51.479Z,22.54
2022-12-08T12:48:17.912Z,22.78
2022-12-08T12:50:44.265Z,22.43
2022-12-08T12:53:13.870Z,22.19
2022-12-08T12:55:40.394Z,22.03
2022-12-08T12:58:06.742Z,22.29
2022-12-08T13:00:33.209Z,23.03
2022-12-08T13:02:59.647Z,22.74
2022-12-08T13:05:26.115Z,22.06
2022-12-08T13:07:52.555Z,22.43
2022-12-08T13:10:19.104Z,21.99
2022-12-08T13:12:45.506Z,23.02
2022-12-08T13:15:11.865Z,23.78
2022-12-08T13:17:38.219Z,23.86
2022-12-08T13:20:04.977Z,22.81
2022-12-08T13:22:31.658Z,22.81
2022-12-08T13:24:58.057Z,23.56
2022-12-08T13:27:24.424Z,23.21
2022-12-08T13:30:01.365Z,23.01
2022-12-08T13:32:54.983Z,22.87
2022-12-08T13:35:20.278Z,22.11
2022-12-08T13:37:54.339Z,22.83
2022-12-08T13:40:21.071Z,22.33
2022-12-08T13:42:47.499Z,23.62
2022-12-08T13:46:04.365Z,23.03
2022-12-08T13:48:23.416Z,22.08
2022-12-08T13:59:05.717Z,22.27
2022-12-08T14:01:32.106Z,23.20
2022-12-08T14:04:33.757Z,23.20
2022-12-08T14:06:44.833Z,23.07
2022-12-08T14:09:11.494Z,23.26
2022-12-08T14:11:38.009Z,22.39
2022-12-08T14:14:04.358Z,22.94
2022-12-08T14:16:30.805Z,22.55
2022-12-08T14:18:57.182Z,22.60
2022-12-08T14:21:23.614Z,22.86
2022-12-08T14:23:49.980Z,23.18
2022-12-08T14:26:16.451Z,22.43
2022-12-08T14:28:45.055Z,21.91
2022-12-08T14:31:11.838Z,22.74
2022-12-08T14:33:38.211Z,22.68
2022-12-08T14:36:04.627Z,22.58
2022-12-08T14:38:31.102Z,23.28
2022-12-08T14:40:57.469Z,22.99
2022-12-08T14:43:23.822Z,23.05
2022-12-08T14:45:50.165Z,23.25
2022-12-08T14:48:16.516Z,23.32
2022-12-08T14:50:42.931Z,23.32
2022-12-08T14:53:09.287Z,23.53
2022-12-08T14:55:35.650Z,23.02
2022-12-08T14:58:02.055Z,23.21
2022-12-08T15:00:28.420Z,23.30
2022-12-08T15:02:54.756Z,22.72
2022-12-08T15:05:21.218Z,23.30
2022-12-08T15:07:47.662Z,23.62
2022-12-08T15:10:14.088Z,23.71
2022-12-08T15:12:40.477Z,24.08
2022-12-08T15:15:06.857Z,24.03
2022-12-08T15:17:33.192Z,23.30
2022-12-08T15:19:59.583Z,23.44
2022-12-08T15:22:25.969Z,23.65
2022-12-08T15:24:52.329Z,23.94
2022-12-08T15:27:18.756Z,24.59
2022-12-08T15:29:45.097Z,25.92
2022-12-08T15:32:11.499Z,28.72
2022-12-08T15:34:37.860Z,32.84
2022-12-08T15:37:04.213Z,26.13
2022-12-08T15:39:30.584Z,24.84
2022-12-08T15:41:57.008Z,24.77
2022-12-08T15:44:23.416Z,24.21
2022-12-08T15:46:49.846Z,24.07
2022-12-08T15:49:16.280Z,24.24
2022-12-08T15:51:42.693Z,24.19
2022-12-08T15:54:09.036Z,24.84
2022-12-08T15:56:45.308Z,24.85
2022-12-08T15:59:21.778Z,24.91
2022-12-08T16:01:48.325Z,26.16
2022-12-08T16:04:59.692Z,27.21
2022-12-08T16:09:47.470Z,26.83
2022-12-08T16:12:13.953Z,26.45
2022-12-08T16:15:47.049Z,26.28
2022-12-08T16:17:26.740Z,26.22
2022-12-08T16:19:53.170Z,27.73
2022-12-08T16:25:22.271Z,27.57
2022-12-08T16:30:35.798Z,31.80
2022-12-08T16:33:02.201Z,27.24
2022-12-08T16:35:28.603Z,29.43
2022-12-08T16:37:55.075Z,32.77
2022-12-08T16:40:21.486Z,30.77
2022-12-08T16:42:47.902Z,28.47
2022-12-08T16:45:14.343Z,28.85
2022-12-08T16:47:40.719Z,27.97
2022-12-08T16:50:07.081Z,27.33
2022-12-08T16:52:33.457Z,27.13
2022-12-08T16:54:59.851Z,26.83
2022-12-08T16:57:26.241Z,26.58
2022-12-08T16:59:52.598Z,27.20
2022-12-08T17:02:18.990Z,27.53
2022-12-08T17:04:45.509Z,26.96
2022-12-08T17:07:11.931Z,27.21
2022-12-08T17:09:38.274Z,27.86
2022-12-08T17:12:04.644Z,28.75
2022-12-08T17:14:31.042Z,30.50
2022-12-08T17:16:57.469Z,29.22
2022-12-08T17:19:23.907Z,29.83
2022-12-08T17:21:50.304Z,29.89
2022-12-08T17:24:21.789Z,29.42
2022-12-08T17:26:48.502Z,28.66
2022-12-08T17:29:14.935Z,29.02
2022-12-08T17:31:41.339Z,29.29
2022-12-08T17:34:09.250Z,34.26
2022-12-08T17:36:35.664Z,30.40
2022-12-08T17:39:01.978Z,27.86
2022-12-08T17:41:28.310Z,27.21
2022-12-08T17:43:54.704Z,27.17
2022-12-08T17:46:21.358Z,27.22
2022-12-08T17:48:49.453Z,27.01
2022-12-08T17:51:18.137Z,27.10
2022-12-08T17:53:44.492Z,27.09
2022-12-08T17:56:13.615Z,27.60
2022-12-08T17:58:40.042Z,27.10
2022-12-08T18:01:06.429Z,26.40
2022-12-08T18:03:32.788Z,27.02
2022-12-08T18:05:59.185Z,27.38
2022-12-08T18:08:25.602Z,27.68
2022-12-08T18:10:51.945Z,27.80
2022-12-08T18:13:18.346Z,27.28
2022-12-08T18:15:44.731Z,27.69
2022-12-08T18:18:11.133Z,27.90
2022-12-08T18:20:37.532Z,28.10
2022-12-08T18:23:03.885Z,28.81
2022-12-08T18:25:30.227Z,29.03
2022-12-08T18:27:56.638Z,28.52
2022-12-08T18:30:23.009Z,29.03
2022-12-08T18:32:54.180Z,28.68
2022-12-08T18:35:23.524Z,30.50
2022-12-08T18:37:49.920Z,28.47
2022-12-08T18:40:16.286Z,29.43
2022-12-08T18:42:42.677Z,29.48
2022-12-08T18:45:11.395Z,28.51
2022-12-08T18:47:37.762Z,28.45
2022-12-08T18:50:04.588Z,28.07
2022-12-08T18:52:32.487Z,28.94
2022-12-08T18:55:06.459Z,28.63
2022-12-08T18:57:35.972Z,29.81
2022-12-08T19:00:02.502Z,30.14
2022-12-08T19:02:31.285Z,29.61
2022-12-08T19:04:57.681Z,30.60
2022-12-08T19:07:24.070Z,31.62
2022-12-08T19:09:50.440Z,30.10
2022-12-08T19:12:16.821Z,28.01
2022-12-08T19:14:43.209Z,26.97
2022-12-08T19:17:09.556Z,28.55
2022-12-08T19:19:35.956Z,28.56
2022-12-08T19:22:02.368Z,30.12
2022-12-08T19:24:28.760Z,30.07
2022-12-08T19:26:55.135Z,28.99
2022-12-08T19:29:21.494Z,27.84
2022-12-08T19:31:47.969Z,27.49
2022-12-08T19:34:14.435Z,27.46
2022-12-08T19:36:40.777Z,28.02
2022-12-08T19:39:07.145Z,27.72
2022-12-08T19:41:33.575Z,29.66
2022-12-08T19:43:59.939Z,30.09
2022-12-08T19:46:26.428Z,28.02
2022-12-08T19:48:52.869Z,28.37
2022-12-08T19:51:19.236Z,28.17
2022-12-08T19:53:47.838Z,28.31
2022-12-08T19:56:17.082Z,28.94
2022-12-08T19:58:43.631Z,29.37
2022-12-08T20:01:11.445Z,28.43
2022-12-08T20:03:39.619Z,28.32
2022-12-08T20:06:06.187Z,28.40
2022-12-08T20:08:32.633Z,28.45
2022-12-08T20:10:59.126Z,28.20
2022-12-08T20:13:25.482Z,27.67
2022-12-08T20:15:51.877Z,28.63
2022-12-08T20:18:18.350Z,30.21
2022-12-08T20:20:44.734Z,29.86
2022-12-08T20:23:11.116Z,29.78
2022-12-08T20:25:37.733Z,28.90
2022-12-08T20:28:04.083Z,27.92
2022-12-08T20:30:30.484Z,27.75
2022-12-08T20:32:56.912Z,28.15
2022-12-08T20:35:23.280Z,28.72
2022-12-08T20:37:49.645Z,29.10
2022-12-08T20:40:16.022Z,29.26
2022-12-08T20:42:42.387Z,28.74
2022-12-08T20:45:09.139Z,28.18
2022-12-08T20:47:35.812Z,27.97
2022-12-08T20:50:02.278Z,28.15
2022-12-08T20:52:28.796Z,27.84
2022-12-08T20:54:55.217Z,28.26
2022-12-08T20:57:21.817Z,27.82
2022-12-08T20:59:48.334Z,28.28
2022-12-08T21:02:14.944Z,28.44
2022-12-08T21:04:41.432Z,29.69
2022-12-08T21:07:08.048Z,28.14
2022-12-08T21:09:34.566Z,27.74
2022-12-08T21:12:01.358Z,29.31
2022-12-08T21:14:27.909Z,29.76
2022-12-08T21:16:54.631Z,28.93
2022-12-08T21:19:21.772Z,30.17
2022-12-08T21:21:48.247Z,29.95
2022-12-08T21:24:14.743Z,29.50
2022-12-08T21:26:41.091Z,30.29
2022-12-08T21:29:07.467Z,29.02
2022-12-08T21:31:34.113Z,29.47
2022-12-08T21:34:00.598Z,29.08
2022-12-08T21:36:27.161Z,29.78
2022-12-08T21:38:53.713Z,30.71
2022-12-08T21:41:20.168Z,31.27
2022-12-08T21:43:46.625Z,30.31
2022-12-08T21:46:13.330Z,30.24
2022-12-08T21:48:39.813Z,30.50
2022-12-08T21:51:06.486Z,29.39
2022-12-08T21:53:33.003Z,30.69
2022-12-08T21:55:59.503Z,30.54
2022-12-08T21:58:25.944Z,30.43
2022-12-08T22:00:52.485Z,31.00
2022-12-08T22:03:19.020Z,30.73
2022-12-08T22:05:45.713Z,32.38
2022-12-08T22:08:13.916Z,30.31
2022-12-08T22:10:40.600Z,29.35
2022-12-08T22:13:07.239Z,28.88
2022-12-08T22:15:33.856Z,28.96
2022-12-08T22:18:00.369Z,29.61
2022-12-08T22:20:27.056Z,29.91
2022-12-08T22:22:53.532Z,29.99
2022-12-08T22:25:19.950Z,30.16
2022-12-08T22:27:46.324Z,30.31
2022-12-08T22:30:13.220Z,30.44
2022-12-08T22:32:40.042Z,30.79
2022-12-08T22:35:06.575Z,31.27
2022-12-08T22:37:33.194Z,30.78
2022-12-08T22:39:59.777Z,30.50
2022-12-08T22:42:26.137Z,30.26
2022-12-08T22:44:52.504Z,30.34
2022-12-08T22:47:18.842Z,30.10
2022-12-08T22:49:45.224Z,30.84
2022-12-08T22:52:11.885Z,30.63
2022-12-08T22:54:38.430Z,31.02
2022-12-08T22:57:04.782Z,30.88
2022-12-08T22:59:31.415Z,31.08
2022-12-08T23:01:57.777Z,31.00
2022-12-08T23:04:24.464Z,31.28
2022-12-08T23:06:51.170Z,31.46
2022-12-08T23:09:17.610Z,30.70
2022-12-08T23:11:44.209Z,30.54
2022-12-08T23:14:10.844Z,30.79
2022-12-08T23:16:37.424Z,30.99
2022-12-08T23:19:04.182Z,30.49
2022-12-08T23:21:30.716Z,30.61
2022-12-08T23:23:57.235Z,30.75
2022-12-08T23:26:23.820Z,30.51
2022-12-08T23:28:50.266Z,30.31
2022-12-08T23:31:16.918Z,31.21
2022-12-08T23:33:43.632Z,31.00
2022-12-08T23:36:10.084Z,31.69
2022-12-08T23:38:36.430Z,32.19
2022-12-08T23:41:02.950Z,32.82
2022-12-08T23:43:29.493Z,33.13
2022-12-08T23:45:56.024Z,33.10
2022-12-08T23:48:22.458Z,32.32
2022-12-08T23:50:49.091Z,32.43
2022-12-08T23:53:15.634Z,33.46
2022-12-08T23:55:42.072Z,34.19
2022-12-08T23:58:08.699Z,34.03
